createdAt,value
2019-03-18T00:00:16.128Z,91.90
2019-03-18T00:02:45.505Z,91.90
2019-03-18T00:05:14.805Z,91.90
2019-03-18T00:07:44.179Z,91.90
2019-03-18T00:10:13.477Z,91.90
2019-03-18T00:12:42.813Z,91.90
2019-03-18T00:15:12.249Z,91.90
2019-03-18T00:17:41.552Z,91.90
2019-03-18T00:20:10.929Z,91.90
2019-03-18T00:22:40.273Z,91.90
2019-03-18T00:25:09.722Z,91.90
2019-03-18T00:27:39.057Z,91.90
2019-03-18T00:30:11.483Z,91.90
2019-03-18T00:32:40.829Z,91.90
2019-03-18T00:35:11.203Z,91.90
2019-03-18T00:37:40.597Z,91.90
2019-03-18T00:40:11.443Z,91.90
2019-03-18T00:42:40.771Z,91.90
2019-03-18T00:45:15.069Z,91.90
2019-03-18T00:47:40.692Z,91.90
2019-03-18T00:50:10.084Z,91.90
2019-03-18T00:52:39.358Z,91.90
2019-03-18T00:55:08.900Z,91.90
2019-03-18T00:57:38.244Z,91.90
2019-03-18T01:00:07.908Z,91.90
2019-03-18T01:02:37.244Z,91.90
2019-03-18T01:05:06.667Z,91.90
2019-03-18T01:07:36.025Z,91.90
2019-03-18T01:12:46.627Z,91.90
2019-03-18T01:15:27.435Z,91.90
2019-03-18T01:17:45.766Z,91.90
2019-03-18T01:20:15.143Z,91.90
2019-03-18T01:22:45.166Z,91.90
2019-03-18T01:25:15.085Z,91.90
2019-03-18T01:27:45.074Z,91.90
2019-03-18T01:30:14.578Z,91.90
2019-03-18T01:32:43.891Z,91.90
2019-03-18T01:35:13.206Z,91.90
2019-03-18T01:37:42.500Z,91.90
2019-03-18T01:40:11.953Z,91.90
2019-03-18T01:42:41.366Z,91.90
2019-03-18T01:45:10.727Z,91.90
2019-03-18T01:47:40.078Z,91.90
2019-03-18T01:50:09.708Z,91.90
2019-03-18T01:52:39.507Z,91.90
2019-03-18T01:55:08.921Z,91.90
2019-03-18T01:57:38.499Z,91.90
2019-03-18T02:00:08.384Z,91.90
2019-03-18T02:02:37.767Z,91.90
2019-03-18T02:05:07.191Z,91.90
2019-03-18T02:07:37.341Z,91.90
2019-03-18T02:10:08.475Z,91.90
2019-03-18T02:12:38.364Z,91.90
2019-03-18T02:15:08.447Z,91.90
2019-03-18T02:17:37.730Z,91.90
2019-03-18T02:20:07.852Z,91.90
2019-03-18T02:22:37.275Z,91.90
2019-03-18T02:25:07.245Z,91.90
2019-03-18T02:27:36.592Z,91.90
2019-03-18T02:30:07.080Z,91.90
2019-03-18T02:32:37.089Z,91.90
2019-03-18T02:35:06.540Z,91.90
2019-03-18T02:37:35.826Z,91.90
2019-03-18T02:40:05.272Z,91.90
2019-03-18T02:42:34.544Z,91.90
2019-03-18T02:45:04.001Z,91.90
2019-03-18T02:47:33.346Z,91.90
2019-03-18T02:50:02.646Z,91.90
2019-03-18T02:52:32.043Z,91.90
2019-03-18T02:55:01.402Z,91.90
2019-03-18T02:57:30.812Z,91.90
2019-03-18T03:00:00.479Z,91.90
2019-03-18T03:02:29.915Z,91.90
2019-03-18T03:04:59.097Z,91.90
2019-03-18T03:07:28.470Z,91.90
2019-03-18T03:09:57.767Z,91.90
2019-03-18T03:12:27.056Z,91.90
2019-03-18T03:14:56.433Z,91.90
2019-03-18T03:17:25.740Z,91.90
2019-03-18T03:19:55.755Z,91.90
2019-03-18T03:22:25.144Z,91.90
2019-03-18T03:24:54.445Z,91.90
2019-03-18T03:27:23.819Z,91.90
2019-03-18T03:29:53.660Z,91.90
2019-03-18T03:32:23.030Z,91.90
2019-03-18T03:34:52.305Z,91.90
2019-03-18T03:37:21.590Z,91.90
2019-03-18T03:39:50.909Z,91.90
2019-03-18T03:42:20.421Z,91.90
2019-03-18T03:44:49.792Z,91.90
2019-03-18T03:47:19.216Z,91.90
2019-03-18T03:49:48.590Z,91.90
2019-03-18T03:52:17.941Z,91.90
2019-03-18T03:54:47.248Z,91.90
2019-03-18T03:57:16.684Z,91.90
2019-03-18T03:59:46.119Z,91.90
2019-03-18T04:05:19.683Z,91.90
2019-03-18T04:07:48.985Z,91.90
2019-03-18T04:10:18.298Z,91.90
2019-03-18T04:12:47.569Z,91.90
2019-03-18T04:15:16.940Z,91.90
2019-03-18T04:17:47.304Z,91.90
2019-03-18T04:20:16.768Z,91.90
2019-03-18T04:22:46.051Z,91.90
2019-03-18T04:25:16.021Z,91.90
2019-03-18T04:27:45.329Z,91.90
2019-03-18T04:30:14.705Z,91.90
2019-03-18T04:32:45.057Z,91.90
2019-03-18T04:35:14.397Z,91.90
2019-03-18T04:37:43.740Z,91.90
2019-03-18T04:40:13.092Z,91.90
2019-03-18T04:42:42.423Z,91.90
2019-03-18T04:45:11.751Z,91.90
2019-03-18T04:47:41.088Z,91.90
2019-03-18T04:50:11.250Z,91.90
2019-03-18T04:52:40.526Z,91.90
2019-03-18T04:55:09.852Z,91.90
2019-03-18T04:57:39.218Z,91.90
2019-03-18T05:00:09.056Z,91.90
2019-03-18T05:02:38.368Z,91.90
2019-03-18T05:05:07.935Z,91.90
2019-03-18T05:07:38.119Z,91.90
2019-03-18T05:10:07.501Z,91.90
2019-03-18T05:12:36.925Z,91.90
2019-03-18T05:15:06.402Z,91.90
2019-03-18T05:17:35.685Z,91.90
2019-03-18T05:20:05.409Z,91.90
2019-03-18T05:22:35.356Z,91.90
2019-03-18T05:25:04.869Z,91.90
2019-03-18T05:27:34.344Z,91.90
2019-03-18T05:30:03.952Z,91.90
2019-03-18T05:32:33.288Z,91.90
2019-03-18T05:35:02.600Z,91.90
2019-03-18T05:37:31.905Z,91.90
2019-03-18T05:40:01.316Z,91.90
2019-03-18T05:42:30.648Z,91.90
2019-03-18T05:44:59.928Z,91.90
2019-03-18T05:47:38.627Z,91.90
2019-03-18T05:49:58.745Z,91.90
2019-03-18T05:52:28.089Z,91.90
2019-03-18T05:54:58.015Z,91.90
2019-03-18T05:57:27.372Z,91.90
2019-03-18T05:59:56.669Z,91.90
2019-03-18T06:02:26.072Z,91.90
2019-03-18T06:04:55.408Z,91.90
2019-03-18T06:07:24.804Z,91.90
2019-03-18T06:09:54.159Z,91.90
2019-03-18T06:12:23.635Z,91.90
2019-03-18T06:14:52.962Z,91.90
2019-03-18T06:17:22.323Z,91.90
2019-03-18T06:19:51.662Z,91.90
2019-03-18T06:22:21.000Z,91.90
2019-03-18T06:24:50.741Z,91.90
2019-03-18T06:27:20.076Z,91.90
2019-03-18T06:29:49.407Z,91.90
2019-03-18T06:32:18.805Z,91.90
2019-03-18T06:34:48.182Z,91.90
2019-03-18T06:37:17.808Z,91.90
2019-03-18T06:39:48.015Z,91.90
2019-03-18T06:42:18.770Z,91.90
2019-03-18T06:44:47.637Z,91.90
2019-03-18T06:47:16.979Z,91.90
2019-03-18T06:49:46.411Z,91.90
2019-03-18T06:52:15.847Z,91.90
2019-03-18T06:54:45.185Z,91.90
2019-03-18T06:57:14.588Z,91.90
2019-03-18T06:59:43.839Z,91.90
2019-03-18T07:02:21.335Z,91.90
2019-03-18T07:04:50.613Z,91.90
2019-03-18T07:07:19.900Z,91.90
2019-03-18T07:09:49.700Z,91.90
2019-03-18T07:12:19.069Z,91.90
2019-03-18T07:14:48.433Z,91.90
2019-03-18T07:17:18.540Z,91.90
2019-03-18T07:19:47.934Z,91.90
2019-03-18T07:22:17.313Z,91.90
2019-03-18T07:24:46.604Z,91.90
2019-03-18T07:27:15.900Z,91.90
2019-03-18T07:29:45.285Z,91.90
2019-03-18T07:32:14.814Z,91.90
2019-03-18T07:34:44.204Z,91.90
2019-03-18T07:37:13.483Z,91.90
2019-03-18T07:39:42.800Z,91.90
2019-03-18T07:42:12.624Z,91.90
2019-03-18T07:44:42.089Z,91.90
2019-03-18T07:47:11.380Z,91.90
2019-03-18T07:49:40.686Z,91.90
2019-03-18T07:52:10.009Z,91.90
2019-03-18T07:54:39.437Z,91.90
2019-03-18T07:57:08.838Z,91.90
2019-03-18T07:59:38.167Z,91.90
2019-03-18T08:02:14.196Z,91.90
2019-03-18T08:04:44.382Z,91.90
2019-03-18T08:07:13.853Z,91.90
2019-03-18T08:09:43.137Z,91.90
2019-03-18T08:12:12.396Z,91.90
2019-03-18T08:14:41.774Z,91.60
2019-03-18T08:17:11.105Z,91.90
2019-03-18T08:19:40.400Z,90.50
2019-03-18T08:22:10.284Z,90.10
2019-03-18T08:24:39.661Z,90.20
2019-03-18T08:27:09.003Z,89.90
2019-03-18T08:29:38.318Z,89.10
2019-03-18T08:32:07.560Z,88.40
2019-03-18T08:34:36.885Z,89.00
2019-03-18T08:37:06.194Z,88.90
2019-03-18T08:39:35.511Z,88.70
2019-03-18T08:42:05.457Z,89.10
2019-03-18T08:44:34.708Z,89.20
2019-03-18T08:47:04.014Z,89.40
2019-03-18T08:49:33.396Z,89.80
2019-03-18T08:52:02.689Z,90.10
2019-03-18T08:54:31.984Z,89.70
2019-03-18T08:57:01.381Z,88.40
2019-03-18T08:59:30.690Z,89.20
2019-03-18T09:02:00.334Z,88.80
2019-03-18T09:04:29.643Z,89.60
2019-03-18T09:06:59.924Z,88.90
2019-03-18T09:09:29.328Z,89.60
2019-03-18T09:11:59.574Z,88.60
2019-03-18T09:14:28.957Z,89.40
2019-03-18T09:16:58.967Z,89.20
2019-03-18T09:19:28.375Z,88.90
2019-03-18T09:21:57.717Z,88.60
2019-03-18T09:24:27.226Z,87.90
2019-03-18T09:27:02.454Z,88.90
2019-03-18T09:29:25.771Z,88.80
2019-03-18T09:31:55.051Z,88.30
2019-03-18T09:34:24.439Z,87.80
2019-03-18T09:36:53.762Z,86.80
2019-03-18T09:39:23.084Z,85.90
2019-03-18T09:41:52.581Z,86.60
2019-03-18T09:44:23.668Z,86.20
2019-03-18T09:46:53.020Z,86.70
2019-03-18T09:49:23.364Z,88.10
2019-03-18T09:51:52.705Z,87.90
2019-03-18T09:54:22.503Z,88.50
2019-03-18T09:56:51.845Z,88.50
2019-03-18T09:59:21.201Z,88.70
2019-03-18T10:01:50.484Z,88.40
2019-03-18T10:04:19.800Z,90.40
2019-03-18T10:06:49.135Z,89.90
2019-03-18T10:09:18.431Z,90.00
2019-03-18T10:11:47.744Z,90.80
2019-03-18T10:14:19.537Z,90.00
2019-03-18T10:16:46.489Z,89.70
2019-03-18T10:19:16.916Z,90.50
2019-03-18T10:21:46.211Z,90.80
2019-03-18T10:24:15.498Z,90.70
2019-03-18T10:26:45.549Z,90.10
2019-03-18T10:29:14.893Z,89.10
2019-03-18T10:31:44.169Z,87.90
2019-03-18T10:34:13.542Z,86.90
2019-03-18T10:36:42.884Z,86.70
2019-03-18T10:39:12.196Z,88.50
2019-03-18T10:41:41.586Z,87.80
2019-03-18T10:44:10.908Z,87.40
2019-03-18T10:46:40.371Z,89.50
2019-03-18T10:49:10.242Z,88.70
2019-03-18T10:51:39.606Z,89.10
2019-03-18T10:54:08.881Z,89.80
2019-03-18T10:56:41.022Z,90.10
2019-03-18T10:59:07.564Z,90.00
2019-03-18T11:01:36.936Z,89.60
2019-03-18T11:04:06.247Z,91.90
2019-03-18T11:06:35.540Z,91.90
2019-03-18T11:09:06.991Z,91.90
2019-03-18T11:11:36.362Z,91.90
2019-03-18T11:14:06.203Z,91.90
2019-03-18T11:16:35.591Z,91.90
2019-03-18T11:19:05.297Z,91.90
2019-03-18T11:21:34.709Z,91.90
2019-03-18T11:24:04.084Z,91.90
2019-03-18T11:26:33.391Z,91.10
2019-03-18T11:29:05.661Z,91.30
2019-03-18T11:31:32.118Z,90.70
2019-03-18T11:34:01.424Z,91.00
2019-03-18T11:36:31.723Z,90.30
2019-03-18T11:39:00.133Z,87.30
2019-03-18T11:41:29.424Z,86.20
2019-03-18T11:43:58.831Z,88.00
2019-03-18T11:46:28.139Z,83.90
2019-03-18T11:48:58.149Z,83.90
2019-03-18T11:51:27.442Z,85.90
2019-03-18T11:53:56.770Z,84.50
2019-03-18T11:56:26.035Z,82.10
2019-03-18T11:58:55.404Z,83.40
2019-03-18T12:01:24.797Z,83.30
2019-03-18T12:03:54.263Z,82.80
2019-03-18T12:06:23.624Z,82.40
2019-03-18T12:08:52.972Z,81.10
2019-03-18T12:11:23.182Z,81.20
2019-03-18T12:13:52.476Z,82.10
2019-03-18T12:16:22.703Z,79.70
2019-03-18T12:18:52.048Z,80.50
2019-03-18T12:21:22.078Z,79.90
2019-03-18T12:23:51.391Z,80.00
2019-03-18T12:26:20.816Z,80.50
2019-03-18T12:28:50.165Z,80.10
2019-03-18T12:31:19.539Z,81.30
2019-03-18T12:33:48.916Z,79.60
2019-03-18T12:36:18.282Z,77.90
2019-03-18T12:38:47.641Z,78.30
2019-03-18T12:41:16.967Z,78.30
2019-03-18T12:43:46.239Z,76.10
2019-03-18T12:46:15.520Z,77.30
2019-03-18T12:48:44.900Z,77.30
2019-03-18T12:51:20.893Z,75.60
2019-03-18T12:53:50.256Z,76.10
2019-03-18T12:56:19.590Z,75.20
2019-03-18T12:58:48.886Z,75.20
2019-03-18T13:01:19.155Z,73.90
2019-03-18T13:03:48.483Z,73.00
2019-03-18T13:06:17.919Z,73.50
2019-03-18T13:08:47.269Z,74.30
2019-03-18T13:11:16.572Z,74.50
2019-03-18T13:13:45.907Z,74.90
2019-03-18T13:16:18.043Z,76.30
2019-03-18T13:18:44.652Z,75.20
2019-03-18T13:21:14.005Z,73.10
2019-03-18T13:23:43.393Z,73.60
2019-03-18T13:26:12.718Z,74.00
2019-03-18T13:28:42.027Z,72.70
2019-03-18T13:31:11.928Z,73.70
2019-03-18T13:33:41.751Z,73.90
2019-03-18T13:36:10.696Z,71.80
2019-03-18T13:38:40.101Z,72.50
2019-03-18T13:41:09.511Z,72.30
2019-03-18T13:43:39.700Z,74.40
2019-03-18T13:46:09.078Z,74.90
2019-03-18T13:48:38.397Z,72.00
2019-03-18T13:51:20.065Z,71.30
2019-03-18T13:53:37.056Z,70.80
2019-03-18T13:56:06.933Z,69.70
2019-03-18T13:58:36.240Z,68.90
2019-03-18T14:01:05.604Z,69.50
2019-03-18T14:03:35.385Z,70.50
2019-03-18T14:06:04.820Z,70.20
2019-03-18T14:08:34.115Z,68.50
2019-03-18T14:11:03.533Z,68.50
2019-03-18T14:13:32.875Z,67.30
2019-03-18T14:16:02.218Z,67.60
2019-03-18T14:18:31.568Z,68.30
2019-03-18T14:21:00.912Z,67.10
2019-03-18T14:23:30.273Z,64.70
2019-03-18T14:26:00.127Z,63.50
2019-03-18T14:28:29.441Z,62.10
2019-03-18T14:30:58.823Z,61.00
2019-03-18T14:33:28.108Z,62.20
2019-03-18T14:35:57.417Z,62.20
2019-03-18T14:38:26.782Z,59.80
2019-03-18T14:40:56.064Z,57.10
2019-03-18T14:43:25.528Z,51.70
2019-03-18T14:45:54.892Z,49.00
2019-03-18T14:48:25.641Z,43.90
2019-03-18T14:50:55.008Z,44.50
2019-03-18T14:53:24.353Z,41.30
2019-03-18T14:55:53.919Z,39.30
2019-03-18T14:58:24.363Z,38.80
2019-03-18T15:00:53.712Z,39.60
2019-03-18T15:03:23.018Z,41.00
2019-03-18T15:05:52.464Z,42.00
2019-03-18T15:08:21.801Z,40.60
2019-03-18T15:10:51.157Z,42.60
2019-03-18T15:13:30.398Z,45.20
2019-03-18T15:15:49.947Z,49.20
2019-03-18T15:18:19.306Z,53.40
2019-03-18T15:20:48.645Z,56.80
2019-03-18T15:23:18.615Z,58.70
2019-03-18T15:25:48.023Z,59.40
2019-03-18T15:28:17.396Z,57.10
2019-03-18T15:30:46.731Z,52.60
2019-03-18T15:33:16.080Z,48.80
2019-03-18T15:35:45.396Z,43.20
2019-03-18T15:38:14.749Z,39.60
2019-03-18T15:40:45.081Z,40.00
2019-03-18T15:43:14.433Z,39.50
2019-03-18T15:45:43.834Z,37.80
2019-03-18T15:48:13.232Z,35.00
2019-03-18T15:50:42.556Z,36.20
2019-03-18T15:53:11.891Z,36.10
2019-03-18T15:55:41.180Z,36.50
2019-03-18T15:58:10.496Z,36.00
2019-03-18T16:00:39.875Z,37.70
2019-03-18T16:03:09.229Z,37.40
2019-03-18T16:05:38.591Z,38.60
2019-03-18T16:08:08.972Z,42.20
2019-03-18T16:10:38.308Z,47.20
2019-03-18T16:13:07.713Z,52.10
2019-03-18T16:15:37.094Z,56.00
2019-03-18T16:18:06.529Z,58.30
2019-03-18T16:20:35.951Z,60.20
2019-03-18T16:23:05.335Z,62.50
2019-03-18T16:25:34.783Z,63.40
2019-03-18T16:28:04.184Z,66.80
2019-03-18T16:30:33.486Z,68.40
2019-03-18T16:33:03.429Z,68.50
2019-03-18T16:35:33.070Z,70.90
2019-03-18T16:38:02.388Z,71.40
2019-03-18T16:40:31.744Z,72.50
2019-03-18T16:43:01.044Z,73.90
2019-03-18T16:45:31.214Z,74.90
2019-03-18T16:48:00.496Z,73.90
2019-03-18T16:50:29.975Z,74.00
2019-03-18T16:52:59.406Z,74.30
2019-03-18T16:55:28.756Z,73.70
2019-03-18T16:57:58.850Z,74.10
2019-03-18T17:00:29.541Z,75.50
2019-03-18T17:02:58.888Z,74.20
2019-03-18T17:05:28.220Z,73.60
2019-03-18T17:08:00.769Z,74.20
2019-03-18T17:10:30.112Z,73.70
2019-03-18T17:12:59.461Z,73.30
2019-03-18T17:15:28.874Z,73.40
2019-03-18T17:17:58.785Z,75.20
2019-03-18T17:20:28.720Z,73.80
2019-03-18T17:22:58.177Z,72.70
2019-03-18T17:25:27.673Z,73.70
2019-03-18T17:27:57.023Z,74.10
2019-03-18T17:30:27.151Z,73.40
2019-03-18T17:32:56.377Z,73.90
2019-03-18T17:35:25.746Z,75.20
2019-03-18T17:37:55.084Z,73.50
2019-03-18T17:40:24.611Z,72.70
2019-03-18T17:42:53.996Z,73.30
2019-03-18T17:45:24.313Z,73.00
2019-03-18T17:47:53.728Z,75.10
2019-03-18T17:50:23.076Z,74.10
2019-03-18T17:53:02.248Z,72.40
2019-03-18T17:55:22.704Z,72.30
2019-03-18T17:57:52.095Z,72.50
2019-03-18T18:00:23.460Z,73.20
2019-03-18T18:02:53.067Z,72.20
2019-03-18T18:05:22.960Z,70.50
2019-03-18T18:07:52.300Z,69.80
2019-03-18T18:10:21.658Z,68.60
2019-03-18T18:12:51.036Z,72.30
2019-03-18T18:15:20.434Z,69.70
2019-03-18T18:17:49.765Z,68.50
2019-03-18T18:20:19.096Z,72.10
2019-03-18T18:22:48.384Z,74.90
2019-03-18T18:25:17.948Z,76.80
2019-03-18T18:27:47.221Z,77.30
2019-03-18T18:30:16.543Z,78.80
2019-03-18T18:32:47.619Z,78.80
2019-03-18T18:35:16.988Z,78.80
2019-03-18T18:37:46.389Z,78.80
2019-03-18T18:40:15.789Z,78.50
2019-03-18T18:42:45.140Z,79.40
2019-03-18T18:45:14.496Z,79.20
2019-03-18T18:47:43.892Z,80.20
2019-03-18T18:50:13.226Z,80.80
2019-03-18T18:52:42.508Z,81.50
2019-03-18T18:55:11.930Z,82.00
2019-03-18T18:57:41.364Z,81.60
2019-03-18T19:00:13.739Z,81.80
2019-03-18T19:02:43.094Z,82.00
2019-03-18T19:05:12.785Z,83.20
2019-03-18T19:07:42.010Z,83.80
2019-03-18T19:10:11.771Z,83.70
2019-03-18T19:12:41.080Z,83.00
2019-03-18T19:15:15.220Z,83.30
2019-03-18T19:17:44.544Z,83.30
2019-03-18T19:20:14.947Z,83.30
2019-03-18T19:22:44.351Z,83.10
2019-03-18T19:25:13.967Z,83.50
2019-03-18T19:27:43.198Z,82.10
2019-03-18T19:30:16.166Z,83.40
2019-03-18T19:32:45.601Z,82.70
2019-03-18T19:35:16.010Z,83.70
2019-03-18T19:37:46.223Z,82.80
2019-03-18T19:40:15.565Z,83.50
2019-03-18T19:42:44.830Z,82.90
2019-03-18T19:45:14.262Z,83.60
2019-03-18T19:47:44.499Z,83.40
2019-03-18T19:50:16.299Z,82.50
2019-03-18T19:52:45.621Z,83.20
2019-03-18T19:55:15.008Z,82.50
2019-03-18T19:57:44.398Z,81.90
2019-03-18T20:00:17.117Z,81.90
2019-03-18T20:02:46.879Z,83.30
2019-03-18T20:05:18.766Z,82.70
2019-03-18T20:07:45.652Z,81.90
2019-03-18T20:10:15.167Z,83.10
2019-03-18T20:12:44.467Z,82.80
2019-03-18T20:15:14.222Z,83.30
2019-03-18T20:17:43.578Z,82.00
2019-03-18T20:20:13.853Z,82.70
2019-03-18T20:22:43.178Z,83.00
2019-03-18T20:25:13.069Z,83.30
2019-03-18T20:27:42.508Z,82.90
2019-03-18T20:30:14.493Z,83.20
2019-03-18T20:32:43.794Z,82.90
2019-03-18T20:35:13.867Z,82.70
2019-03-18T20:37:43.774Z,83.00
2019-03-18T20:40:13.799Z,82.20
2019-03-18T20:42:43.917Z,82.30
2019-03-18T20:45:14.609Z,82.10
2019-03-18T20:47:44.062Z,82.30
2019-03-18T20:50:15.533Z,82.50
2019-03-18T20:52:44.929Z,83.70
2019-03-18T20:55:14.381Z,83.40
2019-03-18T20:57:44.807Z,83.60
2019-03-18T21:00:15.928Z,83.60
2019-03-18T21:02:45.277Z,83.50
2019-03-18T21:05:14.689Z,83.40
2019-03-18T21:07:44.030Z,83.20
2019-03-18T21:10:13.432Z,83.90
2019-03-18T21:12:42.816Z,83.70
2019-03-18T21:15:12.656Z,83.40
2019-03-18T21:17:42.816Z,83.00
2019-03-18T21:20:15.213Z,83.20
2019-03-18T21:22:44.643Z,82.20
2019-03-18T21:25:14.033Z,82.60
2019-03-18T21:27:44.077Z,83.00
2019-03-18T21:30:13.736Z,83.40
2019-03-18T21:32:44.211Z,84.20
2019-03-18T21:35:13.547Z,83.00
2019-03-18T21:37:43.021Z,82.70
2019-03-18T21:40:13.115Z,83.30
2019-03-18T21:42:42.453Z,83.70
2019-03-18T21:45:14.844Z,82.80
2019-03-18T21:47:44.208Z,83.40
2019-03-18T21:50:13.909Z,83.10
2019-03-18T21:52:43.436Z,82.70
2019-03-18T21:55:12.989Z,83.40
2019-03-18T21:57:42.995Z,84.20
2019-03-18T22:00:14.831Z,84.90
2019-03-18T22:02:44.150Z,84.50
2019-03-18T22:05:13.594Z,83.90
2019-03-18T22:07:43.296Z,84.40
2019-03-18T22:10:13.143Z,84.40
2019-03-18T22:12:43.442Z,84.40
2019-03-18T22:15:12.859Z,84.10
2019-03-18T22:17:42.326Z,84.20
2019-03-18T22:20:13.721Z,84.20
2019-03-18T22:22:43.124Z,83.60
2019-03-18T22:25:12.621Z,83.60
2019-03-18T22:27:41.967Z,84.00
2019-03-18T22:30:11.584Z,84.20
2019-03-18T22:32:40.912Z,84.30
2019-03-18T22:35:10.318Z,84.40
2019-03-18T22:37:39.748Z,83.90
2019-03-18T22:40:10.408Z,84.10
2019-03-18T22:42:40.053Z,84.30
2019-03-18T22:45:10.019Z,84.40
2019-03-18T22:47:40.191Z,84.40
2019-03-18T22:50:09.667Z,84.60
2019-03-18T22:52:39.129Z,84.30
2019-03-18T22:55:12.285Z,84.40
2019-03-18T22:57:41.663Z,84.70
2019-03-18T23:00:20.950Z,84.30
2019-03-18T23:02:50.448Z,84.80
2019-03-18T23:05:20.861Z,85.20
2019-03-18T23:07:50.172Z,85.40
2019-03-18T23:10:19.557Z,85.40
2019-03-18T23:12:48.856Z,85.40
2019-03-18T23:15:18.310Z,85.60
2019-03-18T23:17:47.611Z,85.20
2019-03-18T23:20:16.928Z,85.70
2019-03-18T23:22:46.420Z,86.20
2019-03-18T23:25:15.792Z,86.40
2019-03-18T23:27:45.126Z,85.90
2019-03-18T23:30:14.479Z,85.90
2019-03-18T23:32:43.836Z,85.60
2019-03-18T23:35:13.234Z,85.70
2019-03-18T23:37:42.451Z,86.20
2019-03-18T23:40:11.803Z,86.30
2019-03-18T23:42:42.516Z,87.10
2019-03-18T23:45:11.911Z,87.40
2019-03-18T23:47:41.250Z,87.10
2019-03-18T23:50:10.711Z,87.20
2019-03-18T23:52:40.053Z,86.90
2019-03-18T23:55:19.053Z,87.00
2019-03-18T23:57:40.074Z,87.10
